Aviation Digital Data Service (ADDS)

Output produced by TAFs form (1935 UTC 19 July 2018)
found at http://www.aviationweather.gov/adds/tafs/
 
KCAE 191856Z 13015KT 10SM SCT031 BKN055 OVC085 31/23 A2999 RMK AO2 SLP152 T03060228 $
KCAE 191754Z 1918/2018 10013G18KT P6SM VCSH SCT035 BKN250 
     TEMPO 1918/1920 6SM SHRA 
     FM192200 10008KT P6SM SCT035 BKN250 
     FM200800 06007KT P6SM SCT015 BKN035 
     TEMPO 2011/2015 BKN015